createdAt,value
2023-02-12T00:00:50.058Z,9.57
2023-02-12T00:03:16.715Z,12.13
2023-02-12T00:05:43.299Z,10.93
2023-02-12T00:08:09.942Z,12.27
2023-02-12T00:10:39.585Z,8.98
2023-02-12T00:13:06.123Z,9.57
2023-02-12T00:15:32.658Z,10.70
2023-02-12T00:17:59.231Z,11.73
2023-02-12T00:20:25.742Z,9.70
2023-02-12T00:22:52.255Z,12.13
2023-02-12T00:25:19.147Z,11.30
2023-02-12T00:27:45.671Z,9.95
2023-02-12T00:30:12.520Z,11.50
2023-02-12T00:32:39.039Z,12.38
2023-02-12T00:35:05.747Z,11.43
2023-02-12T00:37:32.310Z,12.43
2023-02-12T00:39:58.859Z,11.48
2023-02-12T00:42:25.379Z,9.90
2023-02-12T00:44:51.891Z,11.25
2023-02-12T00:47:18.368Z,10.45
2023-02-12T00:49:44.889Z,11.07
2023-02-12T00:52:11.447Z,10.90
2023-02-12T00:54:38.278Z,8.55
2023-02-12T00:57:04.836Z,10.13
2023-02-12T00:59:31.441Z,9.68
2023-02-12T01:01:58.129Z,10.52
2023-02-12T01:04:24.713Z,9.25
2023-02-12T01:06:51.237Z,11.38
2023-02-12T01:09:17.736Z,11.57
2023-02-12T01:11:44.311Z,8.65
2023-02-12T01:14:10.816Z,15.00
2023-02-12T01:16:37.438Z,9.75
2023-02-12T01:19:04.098Z,11.43
2023-02-12T01:21:31.874Z,7.22
2023-02-12T01:23:58.457Z,9.07
2023-02-12T01:26:25.383Z,9.90
2023-02-12T01:28:56.816Z,10.50
2023-02-12T01:31:25.554Z,10.55
2023-02-12T01:33:53.306Z,8.25
2023-02-12T01:36:19.961Z,6.88
2023-02-12T01:38:47.369Z,10.57
2023-02-12T01:41:21.420Z,9.13
2023-02-12T01:44:06.426Z,10.48
2023-02-12T01:46:33.041Z,12.63
2023-02-12T01:48:59.608Z,11.45
2023-02-12T01:51:26.139Z,10.27
2023-02-12T01:53:53.903Z,6.97
2023-02-12T01:56:20.599Z,10.65
2023-02-12T01:58:47.396Z,9.73
2023-02-12T02:01:20.418Z,9.75
2023-02-12T02:03:50.350Z,11.18
2023-02-12T02:06:20.186Z,11.00
2023-02-12T02:08:46.762Z,10.48
2023-02-12T02:11:13.538Z,9.63
2023-02-12T02:13:40.070Z,9.35
2023-02-12T02:16:24.455Z,10.85
2023-02-12T02:18:54.842Z,10.07
2023-02-12T02:21:35.909Z,9.80
2023-02-12T02:24:24.010Z,10.63
2023-02-12T02:27:02.162Z,11.35
2023-02-12T02:29:28.571Z,13.55
2023-02-12T02:32:12.722Z,7.70
2023-02-12T02:34:50.435Z,9.50
2023-02-12T02:37:31.766Z,9.75
2023-02-12T02:40:00.997Z,9.50
2023-02-12T02:42:37.293Z,10.95
2023-02-12T02:45:32.738Z,10.57
2023-02-12T02:48:04.648Z,10.13
2023-02-12T02:50:31.671Z,11.60
2023-02-12T02:53:07.134Z,11.00
2023-02-12T02:58:09.587Z,5.93
2023-02-12T03:00:38.617Z,9.30
2023-02-12T03:03:30.459Z,11.05
2023-02-12T03:06:01.148Z,7.78
2023-02-12T03:08:30.100Z,8.32
2023-02-12T03:10:58.756Z,10.68
2023-02-12T03:14:02.052Z,11.57
2023-02-12T03:16:33.758Z,9.02
2023-02-12T03:19:14.329Z,9.27
2023-02-12T03:21:46.380Z,10.15
2023-02-12T03:24:22.776Z,11.90
2023-02-12T03:27:03.347Z,14.73
2023-02-12T03:29:30.138Z,11.23
2023-02-12T03:32:17.704Z,10.65
2023-02-12T03:35:10.320Z,10.35
2023-02-12T03:37:58.308Z,11.70
2023-02-12T03:40:37.145Z,10.75
2023-02-12T03:43:25.238Z,10.93
2023-02-12T03:46:07.688Z,11.25
2023-02-12T03:48:54.896Z,9.60
2023-02-12T03:51:22.590Z,8.45
2023-02-12T03:53:49.279Z,10.25
2023-02-12T03:56:20.135Z,12.25
2023-02-12T03:58:46.753Z,12.57
2023-02-12T04:01:13.364Z,13.32
2023-02-12T04:03:39.994Z,12.27
2023-02-12T04:06:19.786Z,12.02
2023-02-12T04:08:46.395Z,14.38
2023-02-12T04:11:21.871Z,10.88
2023-02-12T04:14:07.243Z,13.20
2023-02-12T04:16:50.281Z,13.48
2023-02-12T04:19:20.381Z,11.27
2023-02-12T04:22:05.074Z,9.13
2023-02-12T04:24:50.076Z,9.45
2023-02-12T04:27:24.553Z,12.25
2023-02-12T04:30:12.897Z,7.47
2023-02-12T04:32:59.710Z,11.30
2023-02-12T04:35:49.232Z,10.73
2023-02-12T04:38:27.395Z,9.50
2023-02-12T04:40:53.913Z,11.93
2023-02-12T04:43:30.573Z,7.20
2023-02-12T04:45:57.537Z,11.50
2023-02-12T04:48:24.253Z,9.98
2023-02-12T04:50:50.785Z,9.63
2023-02-12T04:53:17.539Z,11.38
2023-02-12T04:55:44.138Z,15.30
2023-02-12T04:58:10.649Z,11.40
2023-02-12T05:00:37.197Z,11.13
2023-02-12T05:03:03.794Z,9.30
2023-02-12T05:05:30.320Z,11.25
2023-02-12T05:07:57.182Z,10.65
2023-02-12T05:10:23.740Z,12.35
2023-02-12T05:12:52.618Z,11.77
2023-02-12T05:15:19.171Z,15.77
2023-02-12T05:17:45.643Z,14.82
2023-02-12T05:20:12.692Z,9.98
2023-02-12T05:22:39.238Z,13.82
2023-02-12T05:25:06.164Z,14.25
2023-02-12T05:27:32.702Z,14.10
2023-02-12T05:29:59.220Z,12.90
2023-02-12T05:32:25.771Z,11.60
2023-02-12T05:34:52.279Z,9.30
2023-02-12T05:37:18.783Z,12.52
2023-02-12T05:39:45.310Z,10.68
2023-02-12T05:42:11.807Z,12.50
2023-02-12T05:44:38.422Z,12.95
2023-02-12T05:47:04.950Z,10.05
2023-02-12T05:49:31.526Z,11.68
2023-02-12T05:51:58.208Z,8.60
2023-02-12T05:54:24.706Z,12.98
2023-02-12T05:56:51.198Z,13.10
2023-02-12T05:59:19.630Z,10.20
2023-02-12T06:01:47.040Z,14.60
2023-02-12T06:04:19.325Z,12.70
2023-02-12T06:06:45.991Z,14.60
2023-02-12T06:09:13.119Z,13.10
2023-02-12T06:11:39.794Z,14.73
2023-02-12T06:14:06.971Z,13.57
2023-02-12T06:16:34.093Z,14.05
2023-02-12T06:19:01.882Z,14.13
2023-02-12T06:21:28.436Z,11.38
2023-02-12T06:23:54.970Z,13.85
2023-02-12T06:26:21.728Z,13.82
2023-02-12T06:28:48.296Z,12.07
2023-02-12T06:31:22.357Z,13.25
2023-02-12T06:33:49.083Z,13.10
2023-02-12T06:36:15.751Z,10.63
2023-02-12T06:38:42.377Z,10.75
2023-02-12T06:41:40.606Z,14.27
2023-02-12T06:44:16.325Z,13.52
2023-02-12T06:46:43.059Z,15.07
2023-02-12T06:49:10.996Z,12.00
2023-02-12T06:51:37.817Z,11.68
2023-02-12T06:54:04.516Z,16.63
2023-02-12T06:56:31.326Z,15.90
2023-02-12T06:58:58.721Z,18.33
2023-02-12T07:01:26.716Z,14.65
2023-02-12T07:04:00.881Z,16.02
2023-02-12T07:06:27.757Z,16.95
2023-02-12T07:08:55.180Z,15.32
2023-02-12T07:11:25.610Z,19.65
2023-02-12T07:13:52.256Z,17.05
2023-02-12T07:16:18.964Z,13.45
2023-02-12T07:18:45.701Z,15.60
2023-02-12T07:21:12.709Z,17.45
2023-02-12T07:23:39.238Z,17.40
2023-02-12T07:26:07.301Z,17.40
2023-02-12T07:28:34.063Z,16.98
2023-02-12T07:31:06.115Z,14.75
2023-02-12T07:33:32.717Z,14.18
2023-02-12T07:36:02.941Z,18.35
2023-02-12T07:38:29.545Z,18.50
2023-02-12T07:40:56.103Z,17.65
2023-02-12T07:43:22.827Z,17.77
2023-02-12T07:45:49.524Z,15.35
2023-02-12T07:48:16.094Z,17.70
2023-02-12T07:50:42.639Z,20.52
2023-02-12T07:53:09.286Z,21.88
2023-02-12T07:55:35.859Z,22.17
2023-02-12T07:58:02.642Z,22.55
2023-02-12T08:00:29.227Z,20.00
2023-02-12T08:02:55.808Z,18.27
2023-02-12T08:05:22.397Z,18.15
2023-02-12T08:07:49.088Z,18.83
2023-02-12T08:10:15.753Z,20.63
2023-02-12T08:12:42.399Z,20.25
2023-02-12T08:15:09.546Z,19.77
2023-02-12T08:17:36.175Z,18.00
2023-02-12T08:20:02.953Z,21.30
2023-02-12T08:22:29.580Z,19.70
2023-02-12T08:24:56.225Z,21.83
2023-02-12T08:27:22.725Z,17.80
2023-02-12T08:29:49.375Z,19.27
2023-02-12T08:32:16.036Z,19.55
2023-02-12T08:34:42.591Z,19.88
2023-02-12T08:37:09.257Z,19.55
2023-02-12T08:39:37.154Z,20.20
2023-02-12T08:42:03.879Z,21.95
2023-02-12T08:44:32.894Z,18.33
2023-02-12T08:47:02.480Z,20.45
2023-02-12T08:49:29.741Z,20.70
2023-02-12T08:52:02.049Z,19.13
2023-02-12T08:54:29.713Z,18.80
2023-02-12T08:56:57.482Z,22.25
2023-02-12T08:59:24.034Z,20.13
2023-02-12T09:01:51.760Z,18.33
2023-02-12T09:04:20.871Z,18.45
2023-02-12T09:06:47.942Z,21.38
2023-02-12T09:09:14.926Z,18.52
2023-02-12T09:11:42.150Z,15.18
2023-02-12T09:14:12.193Z,18.67
2023-02-12T09:16:38.928Z,18.00
2023-02-12T09:19:05.764Z,15.55
2023-02-12T09:21:32.563Z,18.20
2023-02-12T09:23:59.281Z,19.58
2023-02-12T09:26:26.040Z,15.05
2023-02-12T09:28:52.629Z,18.92
2023-02-12T09:31:23.817Z,20.90
2023-02-12T09:33:53.990Z,15.20
2023-02-12T09:36:23.310Z,17.73
2023-02-12T09:39:00.657Z,20.05
2023-02-12T09:42:00.311Z,20.55
2023-02-12T09:44:39.156Z,17.58
2023-02-12T09:47:23.519Z,19.08
2023-02-12T09:50:26.572Z,19.10
2023-02-12T09:52:54.250Z,13.80
2023-02-12T09:55:21.330Z,17.58
2023-02-12T09:57:48.118Z,16.73
2023-02-12T10:00:38.958Z,14.80
2023-02-12T10:03:13.302Z,17.35
2023-02-12T10:06:02.827Z,18.67
2023-02-12T10:09:07.243Z,18.30
2023-02-12T10:11:36.822Z,19.33
2023-02-12T10:14:22.977Z,17.58
2023-02-12T10:16:59.279Z,14.82
2023-02-12T10:19:47.423Z,20.25
2023-02-12T10:22:28.336Z,20.58
2023-02-12T10:25:01.838Z,19.63
2023-02-12T10:27:55.676Z,18.83
2023-02-12T10:30:26.764Z,16.15
2023-02-12T10:32:58.694Z,17.00
2023-02-12T10:35:25.238Z,18.45
2023-02-12T10:38:16.651Z,16.70
2023-02-12T10:40:44.248Z,18.10
2023-02-12T10:43:13.253Z,17.13
2023-02-12T10:45:41.238Z,21.90
2023-02-12T10:48:08.927Z,17.67
2023-02-12T10:51:02.863Z,14.65
2023-02-12T10:53:38.731Z,14.40
2023-02-12T10:56:11.463Z,20.13
2023-02-12T10:58:50.225Z,17.85
2023-02-12T11:01:20.838Z,16.40
2023-02-12T11:03:47.914Z,14.07
2023-02-12T11:06:19.729Z,15.23
2023-02-12T11:08:46.573Z,12.70
2023-02-12T11:11:21.407Z,16.40
2023-02-12T11:13:58.642Z,16.80
2023-02-12T11:16:55.107Z,17.57
2023-02-12T11:19:26.853Z,13.82
2023-02-12T11:22:04.235Z,15.25
2023-02-12T11:24:32.848Z,14.43
2023-02-12T11:27:15.784Z,16.15
2023-02-12T11:29:43.321Z,15.95
2023-02-12T11:32:18.457Z,15.98
2023-02-12T11:34:47.785Z,15.50
2023-02-12T11:37:36.590Z,14.88
2023-02-12T11:40:05.971Z,17.20
2023-02-12T11:42:36.980Z,13.27
2023-02-12T11:45:06.813Z,14.15
2023-02-12T11:47:34.940Z,15.02
2023-02-12T11:50:07.505Z,15.93
2023-02-12T11:52:35.950Z,17.67
2023-02-12T11:55:05.598Z,14.82
2023-02-12T11:57:49.081Z,14.65
2023-02-12T12:00:20.196Z,13.93
2023-02-12T12:03:12.571Z,12.98
2023-02-12T12:05:45.016Z,13.25
2023-02-12T12:08:21.907Z,12.68
2023-02-12T12:10:54.407Z,14.63
2023-02-12T12:13:27.566Z,12.77
2023-02-12T12:16:11.298Z,16.83
2023-02-12T12:18:46.871Z,12.20
2023-02-12T12:24:11.668Z,13.68
2023-02-12T12:26:50.868Z,13.50
2023-02-12T12:29:47.423Z,12.40
2023-02-12T12:34:43.736Z,14.43
2023-02-12T12:37:13.342Z,10.30
2023-02-12T12:40:04.786Z,14.18
2023-02-12T12:42:51.116Z,12.73
2023-02-12T12:45:51.830Z,13.60
2023-02-12T12:48:24.449Z,12.27
2023-02-12T12:51:18.521Z,10.65
2023-02-12T12:54:03.832Z,12.43
2023-02-12T12:56:42.355Z,14.50
2023-02-12T12:59:46.457Z,13.30
2023-02-12T13:02:28.835Z,11.52
2023-02-12T13:05:01.654Z,11.57
2023-02-12T13:08:06.268Z,14.18
2023-02-12T13:10:34.200Z,13.43
2023-02-12T13:13:12.724Z,13.55
2023-02-12T13:16:26.455Z,13.77
2023-02-12T13:19:10.328Z,13.02
2023-02-12T13:21:59.159Z,15.75
2023-02-12T13:24:39.630Z,13.48
2023-02-12T13:27:07.996Z,12.63
2023-02-12T13:29:59.635Z,14.70
2023-02-12T13:32:34.547Z,14.85
2023-02-12T13:35:01.445Z,13.75
2023-02-12T13:37:45.155Z,11.07
2023-02-12T13:40:18.006Z,14.52
2023-02-12T13:43:23.616Z,11.70
2023-02-12T13:46:14.809Z,8.25
2023-02-12T13:49:06.500Z,10.75
2023-02-12T13:52:08.690Z,12.70
2023-02-12T13:54:54.372Z,14.88
2023-02-12T13:57:24.190Z,9.13
2023-02-12T13:59:55.313Z,12.10
2023-02-12T14:02:34.618Z,13.35
2023-02-12T14:05:24.075Z,11.52
2023-02-12T14:08:01.295Z,12.27
2023-02-12T14:10:30.513Z,11.43
2023-02-12T14:13:19.301Z,11.40
2023-02-12T14:15:49.182Z,10.52
2023-02-12T14:18:29.803Z,12.80
2023-02-12T14:21:11.671Z,12.73
2023-02-12T14:23:44.356Z,10.75
2023-02-12T14:26:21.517Z,11.15
2023-02-12T14:28:57.102Z,8.32
2023-02-12T14:34:05.722Z,6.93
2023-02-12T14:36:32.348Z,8.75
2023-02-12T14:39:25.332Z,9.00
2023-02-12T14:41:55.916Z,8.10
2023-02-12T14:44:22.470Z,10.82
2023-02-12T14:46:52.721Z,10.50
2023-02-12T14:49:33.154Z,11.27
2023-02-12T14:52:16.777Z,11.05
2023-02-12T14:54:57.693Z,8.15
2023-02-12T14:57:33.297Z,10.68
2023-02-12T15:00:06.160Z,10.65
2023-02-12T15:02:35.120Z,10.05
2023-02-12T15:05:07.822Z,9.43
2023-02-12T15:07:48.018Z,10.75
2023-02-12T15:10:19.898Z,10.57
2023-02-12T15:12:52.387Z,8.32
2023-02-12T15:15:25.717Z,10.05
2023-02-12T15:18:06.824Z,11.70
2023-02-12T15:20:45.087Z,10.50
2023-02-12T15:23:30.716Z,7.30
2023-02-12T15:25:57.871Z,8.40
2023-02-12T15:28:33.147Z,8.18
2023-02-12T15:31:05.898Z,9.82
2023-02-12T15:33:33.666Z,7.80
2023-02-12T15:36:01.313Z,9.80
2023-02-12T15:38:37.266Z,10.00
2023-02-12T15:41:07.536Z,7.95
2023-02-12T15:43:35.596Z,7.40
2023-02-12T15:46:05.198Z,10.10
2023-02-12T15:48:35.732Z,12.15
2023-02-12T15:51:26.496Z,8.85
2023-02-12T15:53:53.236Z,8.18
2023-02-12T15:56:22.229Z,7.55
2023-02-12T15:58:53.451Z,6.90
2023-02-12T16:01:23.814Z,8.68
2023-02-12T16:04:01.579Z,8.50
2023-02-12T16:06:29.164Z,6.78
2023-02-12T16:09:05.602Z,5.32
2023-02-12T16:11:32.365Z,6.72
2023-02-12T16:14:04.472Z,7.88
2023-02-12T16:16:48.821Z,5.53
2023-02-12T16:19:18.564Z,6.10
2023-02-12T16:21:45.623Z,7.25
2023-02-12T16:24:25.911Z,6.07
2023-02-12T16:26:52.722Z,5.43
2023-02-12T16:29:19.605Z,6.57
2023-02-12T16:31:59.820Z,7.50
2023-02-12T16:34:38.383Z,6.10
2023-02-12T16:37:36.095Z,6.30
2023-02-12T16:40:13.432Z,4.88
2023-02-12T16:42:56.531Z,5.70
2023-02-12T16:45:26.146Z,4.05
2023-02-12T16:47:59.499Z,4.90
2023-02-12T16:50:27.638Z,3.88
2023-02-12T16:53:01.792Z,4.88
2023-02-12T16:55:28.678Z,4.72
2023-02-12T16:57:55.389Z,4.75
2023-02-12T17:00:22.834Z,4.43
2023-02-12T17:02:49.559Z,4.55
2023-02-12T17:05:16.938Z,4.93
2023-02-12T17:07:43.918Z,4.43
2023-02-12T17:10:14.273Z,4.70
2023-02-12T17:12:47.969Z,4.35
2023-02-12T17:15:27.886Z,4.20
2023-02-12T17:17:54.559Z,3.85
2023-02-12T17:20:21.376Z,4.18
2023-02-12T17:22:50.304Z,4.22
2023-02-12T17:25:17.243Z,3.80
2023-02-12T17:27:44.503Z,3.97
2023-02-12T17:30:18.295Z,4.50
2023-02-12T17:32:45.359Z,4.20
2023-02-12T17:35:24.205Z,3.72
2023-02-12T17:37:56.922Z,4.28
2023-02-12T17:40:31.208Z,4.50
2023-02-12T17:43:01.004Z,4.65
2023-02-12T17:45:38.017Z,4.25
2023-02-12T17:48:14.018Z,4.38
2023-02-12T17:50:54.096Z,4.15
2023-02-12T17:53:34.054Z,4.10
2023-02-12T17:56:11.745Z,3.97
2023-02-12T18:01:37.673Z,3.78
2023-02-12T18:04:11.661Z,3.70
2023-02-12T18:06:41.275Z,5.75
2023-02-12T18:09:16.200Z,4.35
2023-02-12T18:11:45.880Z,4.72
2023-02-12T18:14:15.690Z,4.05
2023-02-12T18:16:47.689Z,4.90
2023-02-12T18:19:17.206Z,4.90
2023-02-12T18:21:48.416Z,5.00
2023-02-12T18:24:27.308Z,4.55
2023-02-12T18:27:00.012Z,4.18
2023-02-12T18:29:27.114Z,4.65
2023-02-12T18:31:55.012Z,6.00
2023-02-12T18:34:22.138Z,4.82
2023-02-12T18:36:49.156Z,6.57
2023-02-12T18:39:16.169Z,5.28
2023-02-12T18:41:42.933Z,4.65
2023-02-12T18:44:09.719Z,4.95
2023-02-12T18:46:36.434Z,6.15
2023-02-12T18:49:04.064Z,6.25
2023-02-12T18:51:33.528Z,5.45
2023-02-12T18:54:01.263Z,4.45
2023-02-12T18:56:32.437Z,5.93
2023-02-12T18:59:00.322Z,5.05
2023-02-12T19:01:28.068Z,5.22
2023-02-12T19:03:59.017Z,9.27
2023-02-12T19:06:29.314Z,5.25
2023-02-12T19:08:57.089Z,8.27
2023-02-12T19:11:24.502Z,7.28
2023-02-12T19:13:51.302Z,5.88
2023-02-12T19:16:18.824Z,5.97
2023-02-12T19:18:48.367Z,6.72
2023-02-12T19:21:15.553Z,6.43
2023-02-12T19:23:42.615Z,5.63
2023-02-12T19:26:11.216Z,6.50
2023-02-12T19:28:38.189Z,5.07
2023-02-12T19:31:15.828Z,7.10
2023-02-12T19:33:43.189Z,6.85
2023-02-12T19:36:10.669Z,6.60
2023-02-12T19:38:37.563Z,6.38
2023-02-12T19:41:09.473Z,7.32
2023-02-12T19:43:36.335Z,5.65
2023-02-12T19:46:10.922Z,6.68
2023-02-12T19:48:37.847Z,6.82
2023-02-12T19:51:04.775Z,7.25
2023-02-12T19:53:31.610Z,6.57
2023-02-12T19:56:04.707Z,7.35
2023-02-12T19:58:31.523Z,7.35
2023-02-12T20:00:58.958Z,6.50
2023-02-12T20:03:25.877Z,6.82
2023-02-12T20:06:10.219Z,7.53
2023-02-12T20:08:37.673Z,4.93
2023-02-12T20:11:11.423Z,6.50
2023-02-12T20:13:38.849Z,6.32
2023-02-12T20:16:07.092Z,6.93
2023-02-12T20:18:34.099Z,6.35
2023-02-12T20:21:01.224Z,5.28
2023-02-12T20:23:27.980Z,7.50
2023-02-12T20:25:54.802Z,7.20
2023-02-12T20:28:22.025Z,5.43
2023-02-12T20:30:48.995Z,6.53
2023-02-12T20:33:15.834Z,5.75
2023-02-12T20:35:46.152Z,8.10
2023-02-12T20:38:13.060Z,5.50
2023-02-12T20:40:39.976Z,7.38
2023-02-12T20:43:06.808Z,5.28
2023-02-12T20:45:36.725Z,7.60
2023-02-12T20:48:03.472Z,5.63
2023-02-12T20:50:30.280Z,8.85
2023-02-12T20:52:59.109Z,5.72
2023-02-12T20:55:25.911Z,7.10
2023-02-12T20:57:55.854Z,6.40
2023-02-12T21:00:22.611Z,8.45
2023-02-12T21:02:49.506Z,7.32
2023-02-12T21:05:16.377Z,8.27
2023-02-12T21:07:43.249Z,6.53
2023-02-12T21:10:13.008Z,6.32
2023-02-12T21:12:39.791Z,4.82
2023-02-12T21:15:07.312Z,5.85
2023-02-12T21:17:36.599Z,8.50
2023-02-12T21:20:03.577Z,8.57
2023-02-12T21:22:30.479Z,8.77
2023-02-12T21:24:57.347Z,8.23
2023-02-12T21:27:24.160Z,7.85
2023-02-12T21:29:50.811Z,7.88
2023-02-12T21:32:17.660Z,10.70
2023-02-12T21:34:44.536Z,10.60
2023-02-12T21:37:11.298Z,11.88
2023-02-12T21:39:38.089Z,12.57
2023-02-12T21:42:05.230Z,7.60
2023-02-12T21:44:32.927Z,8.60
2023-02-12T21:46:59.720Z,9.15
2023-02-12T21:49:26.710Z,8.82
2023-02-12T21:51:57.997Z,8.48
2023-02-12T21:54:25.026Z,7.85
2023-02-12T21:56:51.738Z,10.38
2023-02-12T21:59:18.675Z,8.82
2023-02-12T22:01:49.652Z,10.57
2023-02-12T22:04:16.788Z,10.40
2023-02-12T22:06:48.010Z,11.95
2023-02-12T22:09:16.422Z,7.80
2023-02-12T22:11:43.504Z,8.45
2023-02-12T22:14:12.824Z,7.05
2023-02-12T22:16:39.759Z,17.20
2023-02-12T22:19:06.530Z,9.23
2023-02-12T22:21:35.410Z,7.97
2023-02-12T22:24:03.643Z,10.77
2023-02-12T22:26:30.618Z,10.07
2023-02-12T22:28:59.088Z,9.43
2023-02-12T22:31:28.249Z,7.15
2023-02-12T22:34:00.006Z,8.30
2023-02-12T22:36:26.937Z,7.45
2023-02-12T22:38:55.305Z,8.05
2023-02-12T22:41:22.041Z,11.07
2023-02-12T22:43:48.854Z,8.45
2023-02-12T22:46:15.932Z,11.35
2023-02-12T22:48:42.876Z,9.25
2023-02-12T22:51:10.264Z,9.20
2023-02-12T22:53:37.008Z,12.82
2023-02-12T22:56:04.844Z,8.65
2023-02-12T22:58:31.598Z,9.15
2023-02-12T23:00:58.733Z,7.85
2023-02-12T23:03:25.720Z,7.65
2023-02-12T23:05:52.442Z,10.15
2023-02-12T23:08:19.270Z,10.48
2023-02-12T23:10:45.978Z,9.23
2023-02-12T23:13:24.587Z,9.13
2023-02-12T23:15:55.195Z,7.93
2023-02-12T23:18:22.564Z,10.10
2023-02-12T23:20:49.962Z,9.40
2023-02-12T23:23:17.185Z,10.25
2023-02-12T23:25:44.016Z,10.30
2023-02-12T23:28:11.009Z,11.48
2023-02-12T23:30:38.234Z,10.15
2023-02-12T23:33:05.836Z,11.32
2023-02-12T23:35:32.626Z,10.27
2023-02-12T23:37:59.472Z,10.95
2023-02-12T23:40:26.267Z,8.30
2023-02-12T23:42:52.983Z,11.43
2023-02-12T23:45:19.825Z,6.80
2023-02-12T23:47:46.694Z,7.43
2023-02-12T23:50:13.554Z,14.07
2023-02-12T23:52:40.418Z,12.45
2023-02-12T23:55:07.258Z,9.50
2023-02-12T23:57:34.116Z,12.07
